sensor_id;sensor_type;location;lat;lon;timestamp;P1;durP1;ratioP1;P2;durP2;ratioP2
80322;SDS011;69636;52.372;13.610;2024-03-07T00:00:11;64.13;;;28.92;;
80322;SDS011;69636;52.372;13.610;2024-03-07T00:02:40;68.25;;;31.55;;
80322;SDS011;69636;52.372;13.610;2024-03-07T00:05:08;67.28;;;28.38;;
80322;SDS011;69636;52.372;13.610;2024-03-07T00:07:36;70.53;;;30.02;;
80322;SDS011;69636;52.372;13.610;2024-03-07T00:10:04;65.65;;;29.02;;
80322;SDS011;69636;52.372;13.610;2024-03-07T00:12:33;70.60;;;30.42;;
80322;SDS011;69636;52.372;13.610;2024-03-07T00:15:00;66.28;;;31.77;;
80322;SDS011;69636;52.372;13.610;2024-03-07T00:17:31;72.72;;;30.67;;
80322;SDS011;69636;52.372;13.610;2024-03-07T00:19:58;67.68;;;31.23;;
80322;SDS011;69636;52.372;13.610;2024-03-07T00:22:25;70.47;;;30.02;;
80322;SDS011;69636;52.372;13.610;2024-03-07T00:24:53;67.43;;;30.05;;
80322;SDS011;69636;52.372;13.610;2024-03-07T00:27:20;65.22;;;32.17;;
80322;SDS011;69636;52.372;13.610;2024-03-07T00:32:16;60.38;;;29.70;;
80322;SDS011;69636;52.372;13.610;2024-03-07T00:34:45;62.60;;;30.15;;
80322;SDS011;69636;52.372;13.610;2024-03-07T00:37:12;67.60;;;28.42;;
80322;SDS011;69636;52.372;13.610;2024-03-07T00:39:41;64.28;;;27.27;;
80322;SDS011;69636;52.372;13.610;2024-03-07T00:42:09;67.57;;;27.75;;
80322;SDS011;69636;52.372;13.610;2024-03-07T00:44:37;56.60;;;28.25;;
80322;SDS011;69636;52.372;13.610;2024-03-07T00:47:04;62.30;;;27.67;;
80322;SDS011;69636;52.372;13.610;2024-03-07T00:49:32;63.85;;;28.85;;
80322;SDS011;69636;52.372;13.610;2024-03-07T00:52:00;58.97;;;27.35;;
80322;SDS011;69636;52.372;13.610;2024-03-07T00:54:28;58.58;;;26.38;;
80322;SDS011;69636;52.372;13.610;2024-03-07T00:56:55;63.63;;;27.65;;
80322;SDS011;69636;52.372;13.610;2024-03-07T00:59:22;65.78;;;28.13;;
80322;SDS011;69636;52.372;13.610;2024-03-07T01:01:50;61.13;;;29.42;;
80322;SDS011;69636;52.372;13.610;2024-03-07T01:04:17;60.55;;;28.40;;
80322;SDS011;69636;52.372;13.610;2024-03-07T01:06:44;63.15;;;29.88;;
80322;SDS011;69636;52.372;13.610;2024-03-07T01:09:13;60.92;;;27.25;;
80322;SDS011;69636;52.372;13.610;2024-03-07T01:11:42;59.83;;;28.77;;
80322;SDS011;69636;52.372;13.610;2024-03-07T01:14:10;61.83;;;28.15;;
80322;SDS011;69636;52.372;13.610;2024-03-07T01:16:38;64.07;;;28.08;;
80322;SDS011;69636;52.372;13.610;2024-03-07T01:19:05;58.72;;;29.55;;
80322;SDS011;69636;52.372;13.610;2024-03-07T01:21:34;66.93;;;30.80;;
80322;SDS011;69636;52.372;13.610;2024-03-07T01:24:05;62.92;;;28.67;;
80322;SDS011;69636;52.372;13.610;2024-03-07T01:26:35;59.78;;;29.35;;
80322;SDS011;69636;52.372;13.610;2024-03-07T01:29:03;59.10;;;29.90;;
80322;SDS011;69636;52.372;13.610;2024-03-07T01:31:31;67.88;;;33.53;;
80322;SDS011;69636;52.372;13.610;2024-03-07T01:33:59;58.78;;;27.17;;
80322;SDS011;69636;52.372;13.610;2024-03-07T01:36:26;61.75;;;27.20;;
80322;SDS011;69636;52.372;13.610;2024-03-07T01:38:53;55.95;;;27.58;;
80322;SDS011;69636;52.372;13.610;2024-03-07T01:41:21;60.63;;;28.88;;
80322;SDS011;69636;52.372;13.610;2024-03-07T01:43:50;61.90;;;27.17;;
80322;SDS011;69636;52.372;13.610;2024-03-07T01:46:19;57.83;;;28.15;;
80322;SDS011;69636;52.372;13.610;2024-03-07T01:48:47;64.07;;;28.92;;
80322;SDS011;69636;52.372;13.610;2024-03-07T01:51:14;64.68;;;30.40;;
80322;SDS011;69636;52.372;13.610;2024-03-07T01:53:42;58.33;;;28.98;;
80322;SDS011;69636;52.372;13.610;2024-03-07T01:56:10;57.95;;;27.10;;
80322;SDS011;69636;52.372;13.610;2024-03-07T01:58:37;60.92;;;29.45;;
80322;SDS011;69636;52.372;13.610;2024-03-07T02:01:08;67.35;;;29.33;;
80322;SDS011;69636;52.372;13.610;2024-03-07T02:03:36;55.65;;;28.48;;
80322;SDS011;69636;52.372;13.610;2024-03-07T02:06:03;58.10;;;29.80;;
80322;SDS011;69636;52.372;13.610;2024-03-07T02:08:31;58.97;;;28.48;;
80322;SDS011;69636;52.372;13.610;2024-03-07T02:10:59;57.05;;;29.35;;
80322;SDS011;69636;52.372;13.610;2024-03-07T02:13:26;58.97;;;28.17;;
80322;SDS011;69636;52.372;13.610;2024-03-07T02:15:53;68.47;;;36.08;;
80322;SDS011;69636;52.372;13.610;2024-03-07T02:18:22;61.08;;;28.65;;
80322;SDS011;69636;52.372;13.610;2024-03-07T02:20:51;63.22;;;27.58;;
80322;SDS011;69636;52.372;13.610;2024-03-07T02:23:19;60.53;;;27.48;;
80322;SDS011;69636;52.372;13.610;2024-03-07T02:25:46;57.70;;;28.38;;
80322;SDS011;69636;52.372;13.610;2024-03-07T02:28:13;61.67;;;29.23;;
80322;SDS011;69636;52.372;13.610;2024-03-07T02:30:41;62.92;;;31.13;;
80322;SDS011;69636;52.372;13.610;2024-03-07T02:33:08;58.55;;;28.15;;
80322;SDS011;69636;52.372;13.610;2024-03-07T02:35:38;65.32;;;31.23;;
80322;SDS011;69636;52.372;13.610;2024-03-07T02:38:07;68.53;;;30.08;;
80322;SDS011;69636;52.372;13.610;2024-03-07T02:40:35;66.45;;;31.08;;
80322;SDS011;69636;52.372;13.610;2024-03-07T02:43:02;54.75;;;27.73;;
80322;SDS011;69636;52.372;13.610;2024-03-07T02:45:33;65.13;;;33.47;;
80322;SDS011;69636;52.372;13.610;2024-03-07T02:48:00;52.40;;;26.92;;
80322;SDS011;69636;52.372;13.610;2024-03-07T02:50:28;58.92;;;28.02;;
80322;SDS011;69636;52.372;13.610;2024-03-07T02:52:55;62.58;;;28.98;;
80322;SDS011;69636;52.372;13.610;2024-03-07T02:55:24;58.28;;;37.72;;
80322;SDS011;69636;52.372;13.610;2024-03-07T02:57:53;52.47;;;28.35;;
80322;SDS011;69636;52.372;13.610;2024-03-07T03:00:20;57.72;;;29.60;;
80322;SDS011;69636;52.372;13.610;2024-03-07T03:02:48;58.63;;;28.58;;
80322;SDS011;69636;52.372;13.610;2024-03-07T03:05:16;55.80;;;26.73;;
80322;SDS011;69636;52.372;13.610;2024-03-07T03:07:44;53.75;;;26.88;;
80322;SDS011;69636;52.372;13.610;2024-03-07T03:10:12;55.95;;;29.67;;
80322;SDS011;69636;52.372;13.610;2024-03-07T03:12:41;53.55;;;26.67;;
80322;SDS011;69636;52.372;13.610;2024-03-07T03:15:08;55.35;;;26.00;;
80322;SDS011;69636;52.372;13.610;2024-03-07T03:17:36;52.35;;;28.13;;
80322;SDS011;69636;52.372;13.610;2024-03-07T03:20:04;54.13;;;28.38;;
80322;SDS011;69636;52.372;13.610;2024-03-07T03:22:33;49.38;;;29.45;;
80322;SDS011;69636;52.372;13.610;2024-03-07T03:25:00;51.65;;;27.05;;
80322;SDS011;69636;52.372;13.610;2024-03-07T03:27:28;55.72;;;28.42;;
80322;SDS011;69636;52.372;13.610;2024-03-07T03:29:57;52.40;;;26.75;;
80322;SDS011;69636;52.372;13.610;2024-03-07T03:32:24;48.95;;;25.73;;
80322;SDS011;69636;52.372;13.610;2024-03-07T03:34:52;51.53;;;27.77;;
80322;SDS011;69636;52.372;13.610;2024-03-07T03:37:19;59.15;;;27.88;;
80322;SDS011;69636;52.372;13.610;2024-03-07T03:39:47;49.60;;;25.60;;
80322;SDS011;69636;52.372;13.610;2024-03-07T03:42:14;50.17;;;27.08;;
80322;SDS011;69636;52.372;13.610;2024-03-07T03:44:42;47.00;;;22.30;;
80322;SDS011;69636;52.372;13.610;2024-03-07T03:47:11;50.70;;;25.50;;
80322;SDS011;69636;52.372;13.610;2024-03-07T03:49:39;45.63;;;26.77;;
80322;SDS011;69636;52.372;13.610;2024-03-07T03:52:06;48.83;;;25.15;;
80322;SDS011;69636;52.372;13.610;2024-03-07T03:54:33;43.08;;;24.98;;
80322;SDS011;69636;52.372;13.610;2024-03-07T03:59:29;41.08;;;22.20;;
80322;SDS011;69636;52.372;13.610;2024-03-07T04:01:56;43.35;;;22.23;;
80322;SDS011;69636;52.372;13.610;2024-03-07T04:04:25;42.42;;;23.15;;
80322;SDS011;69636;52.372;13.610;2024-03-07T04:06:53;46.92;;;22.45;;
80322;SDS011;69636;52.372;13.610;2024-03-07T04:09:20;46.40;;;23.23;;
80322;SDS011;69636;52.372;13.610;2024-03-07T04:11:47;46.50;;;23.70;;
80322;SDS011;69636;52.372;13.610;2024-03-07T04:14:15;41.63;;;24.42;;
80322;SDS011;69636;52.372;13.610;2024-03-07T04:16:43;39.30;;;23.17;;
80322;SDS011;69636;52.372;13.610;2024-03-07T04:19:10;43.97;;;24.50;;
80322;SDS011;69636;52.372;13.610;2024-03-07T04:21:39;42.55;;;24.25;;
80322;SDS011;69636;52.372;13.610;2024-03-07T04:24:06;49.15;;;25.30;;
80322;SDS011;69636;52.372;13.610;2024-03-07T04:26:34;41.67;;;23.20;;
80322;SDS011;69636;52.372;13.610;2024-03-07T04:29:01;45.53;;;24.42;;
80322;SDS011;69636;52.372;13.610;2024-03-07T04:31:28;48.90;;;25.73;;
80322;SDS011;69636;52.372;13.610;2024-03-07T04:33:57;41.50;;;23.20;;
80322;SDS011;69636;52.372;13.610;2024-03-07T04:38:53;38.88;;;20.15;;
80322;SDS011;69636;52.372;13.610;2024-03-07T04:41:20;39.13;;;22.10;;
80322;SDS011;69636;52.372;13.610;2024-03-07T04:43:48;42.15;;;22.63;;
80322;SDS011;69636;52.372;13.610;2024-03-07T04:46:15;43.03;;;24.85;;
80322;SDS011;69636;52.372;13.610;2024-03-07T04:48:43;40.60;;;24.00;;
80322;SDS011;69636;52.372;13.610;2024-03-07T04:51:10;42.00;;;21.73;;
80322;SDS011;69636;52.372;13.610;2024-03-07T04:53:38;40.30;;;21.92;;
80322;SDS011;69636;52.372;13.610;2024-03-07T04:56:06;45.63;;;24.48;;
80322;SDS011;69636;52.372;13.610;2024-03-07T04:58:34;37.65;;;22.92;;
80322;SDS011;69636;52.372;13.610;2024-03-07T05:01:01;44.83;;;24.90;;
80322;SDS011;69636;52.372;13.610;2024-03-07T05:03:29;41.65;;;23.70;;
80322;SDS011;69636;52.372;13.610;2024-03-07T05:05:56;42.88;;;23.70;;
80322;SDS011;69636;52.372;13.610;2024-03-07T05:08:26;44.10;;;21.75;;
80322;SDS011;69636;52.372;13.610;2024-03-07T05:10:54;44.78;;;24.48;;
80322;SDS011;69636;52.372;13.610;2024-03-07T05:13:22;41.75;;;23.63;;
80322;SDS011;69636;52.372;13.610;2024-03-07T05:15:50;43.03;;;23.40;;
80322;SDS011;69636;52.372;13.610;2024-03-07T05:18:18;40.15;;;24.63;;
80322;SDS011;69636;52.372;13.610;2024-03-07T05:20:46;42.95;;;25.13;;
80322;SDS011;69636;52.372;13.610;2024-03-07T05:23:13;47.80;;;24.42;;
80322;SDS011;69636;52.372;13.610;2024-03-07T05:25:43;43.08;;;25.48;;
80322;SDS011;69636;52.372;13.610;2024-03-07T05:28:11;36.67;;;22.80;;
80322;SDS011;69636;52.372;13.610;2024-03-07T05:30:40;41.28;;;24.38;;
80322;SDS011;69636;52.372;13.610;2024-03-07T05:33:07;41.88;;;22.67;;
80322;SDS011;69636;52.372;13.610;2024-03-07T05:35:35;37.67;;;21.80;;
80322;SDS011;69636;52.372;13.610;2024-03-07T05:38:02;42.60;;;28.70;;
80322;SDS011;69636;52.372;13.610;2024-03-07T05:40:30;40.20;;;26.17;;
80322;SDS011;69636;52.372;13.610;2024-03-07T05:42:57;39.42;;;26.17;;
80322;SDS011;69636;52.372;13.610;2024-03-07T05:45:25;35.92;;;23.40;;
80322;SDS011;69636;52.372;13.610;2024-03-07T05:47:54;38.42;;;22.55;;
80322;SDS011;69636;52.372;13.610;2024-03-07T05:50:21;38.42;;;27.02;;
80322;SDS011;69636;52.372;13.610;2024-03-07T05:52:49;34.03;;;20.27;;
80322;SDS011;69636;52.372;13.610;2024-03-07T05:55:16;33.30;;;21.02;;
80322;SDS011;69636;52.372;13.610;2024-03-07T05:57:43;35.25;;;19.77;;
80322;SDS011;69636;52.372;13.610;2024-03-07T06:00:11;41.10;;;24.02;;
80322;SDS011;69636;52.372;13.610;2024-03-07T06:02:40;36.17;;;21.50;;
80322;SDS011;69636;52.372;13.610;2024-03-07T06:05:11;38.28;;;22.60;;
80322;SDS011;69636;52.372;13.610;2024-03-07T06:07:38;37.25;;;21.23;;
80322;SDS011;69636;52.372;13.610;2024-03-07T06:10:06;34.40;;;23.52;;
80322;SDS011;69636;52.372;13.610;2024-03-07T06:12:36;31.67;;;21.10;;
80322;SDS011;69636;52.372;13.610;2024-03-07T06:15:09;33.72;;;20.45;;
80322;SDS011;69636;52.372;13.610;2024-03-07T06:17:37;33.15;;;21.70;;
80322;SDS011;69636;52.372;13.610;2024-03-07T06:20:05;32.17;;;20.75;;
80322;SDS011;69636;52.372;13.610;2024-03-07T06:22:35;36.20;;;21.15;;
80322;SDS011;69636;52.372;13.610;2024-03-07T06:25:02;37.67;;;22.80;;
80322;SDS011;69636;52.372;13.610;2024-03-07T06:27:30;39.75;;;24.58;;
80322;SDS011;69636;52.372;13.610;2024-03-07T06:29:57;33.78;;;19.55;;
80322;SDS011;69636;52.372;13.610;2024-03-07T06:32:24;30.63;;;20.92;;
80322;SDS011;69636;52.372;13.610;2024-03-07T06:34:52;30.33;;;19.42;;
80322;SDS011;69636;52.372;13.610;2024-03-07T06:37:19;34.47;;;20.90;;
80322;SDS011;69636;52.372;13.610;2024-03-07T06:39:48;28.73;;;22.85;;
80322;SDS011;69636;52.372;13.610;2024-03-07T06:42:15;35.35;;;19.02;;
80322;SDS011;69636;52.372;13.610;2024-03-07T06:44:43;33.90;;;19.50;;
80322;SDS011;69636;52.372;13.610;2024-03-07T06:47:10;32.20;;;20.85;;
80322;SDS011;69636;52.372;13.610;2024-03-07T06:49:38;28.83;;;19.13;;
80322;SDS011;69636;52.372;13.610;2024-03-07T06:52:05;28.33;;;21.60;;
80322;SDS011;69636;52.372;13.610;2024-03-07T06:54:33;27.70;;;17.88;;
80322;SDS011;69636;52.372;13.610;2024-03-07T06:57:02;25.55;;;16.77;;
80322;SDS011;69636;52.372;13.610;2024-03-07T06:59:29;27.77;;;20.27;;
80322;SDS011;69636;52.372;13.610;2024-03-07T07:01:57;29.83;;;18.05;;
80322;SDS011;69636;52.372;13.610;2024-03-07T07:04:24;29.25;;;17.58;;
80322;SDS011;69636;52.372;13.610;2024-03-07T07:06:52;24.88;;;17.25;;
80322;SDS011;69636;52.372;13.610;2024-03-07T07:09:19;24.80;;;16.38;;
80322;SDS011;69636;52.372;13.610;2024-03-07T07:11:46;26.77;;;19.17;;
80322;SDS011;69636;52.372;13.610;2024-03-07T07:14:15;25.30;;;17.02;;
80322;SDS011;69636;52.372;13.610;2024-03-07T07:16:43;23.55;;;15.10;;
80322;SDS011;69636;52.372;13.610;2024-03-07T07:19:10;28.42;;;16.25;;
80322;SDS011;69636;52.372;13.610;2024-03-07T07:21:38;23.67;;;16.77;;
80322;SDS011;69636;52.372;13.610;2024-03-07T07:24:06;20.35;;;13.88;;
80322;SDS011;69636;52.372;13.610;2024-03-07T07:26:33;25.42;;;15.65;;
80322;SDS011;69636;52.372;13.610;2024-03-07T07:29:01;25.15;;;15.40;;
80322;SDS011;69636;52.372;13.610;2024-03-07T07:31:30;21.85;;;14.98;;
80322;SDS011;69636;52.372;13.610;2024-03-07T07:33:57;25.25;;;16.63;;
80322;SDS011;69636;52.372;13.610;2024-03-07T07:36:25;24.73;;;15.48;;
80322;SDS011;69636;52.372;13.610;2024-03-07T07:38:56;24.80;;;16.63;;
80322;SDS011;69636;52.372;13.610;2024-03-07T07:41:24;21.58;;;13.50;;
80322;SDS011;69636;52.372;13.610;2024-03-07T07:43:51;23.80;;;14.88;;
80322;SDS011;69636;52.372;13.610;2024-03-07T07:46:18;20.98;;;15.80;;
80322;SDS011;69636;52.372;13.610;2024-03-07T07:48:48;22.20;;;14.07;;
80322;SDS011;69636;52.372;13.610;2024-03-07T07:51:16;22.88;;;15.63;;
80322;SDS011;69636;52.372;13.610;2024-03-07T07:53:43;17.50;;;13.25;;
80322;SDS011;69636;52.372;13.610;2024-03-07T07:56:11;22.63;;;14.45;;
80322;SDS011;69636;52.372;13.610;2024-03-07T07:58:38;21.92;;;14.43;;
80322;SDS011;69636;52.372;13.610;2024-03-07T08:01:05;22.67;;;14.32;;
80322;SDS011;69636;52.372;13.610;2024-03-07T08:03:33;21.20;;;14.00;;
80322;SDS011;69636;52.372;13.610;2024-03-07T08:06:02;24.10;;;14.43;;
80322;SDS011;69636;52.372;13.610;2024-03-07T08:08:30;20.08;;;13.98;;
80322;SDS011;69636;52.372;13.610;2024-03-07T08:10:57;23.15;;;15.35;;
80322;SDS011;69636;52.372;13.610;2024-03-07T08:13:24;19.20;;;14.00;;
80322;SDS011;69636;52.372;13.610;2024-03-07T08:15:52;23.38;;;13.77;;
80322;SDS011;69636;52.372;13.610;2024-03-07T08:18:20;19.75;;;13.98;;
80322;SDS011;69636;52.372;13.610;2024-03-07T08:20:49;19.52;;;14.02;;
80322;SDS011;69636;52.372;13.610;2024-03-07T08:23:20;20.25;;;12.68;;
80322;SDS011;69636;52.372;13.610;2024-03-07T08:25:47;18.60;;;12.70;;
80322;SDS011;69636;52.372;13.610;2024-03-07T08:28:14;21.88;;;13.90;;
80322;SDS011;69636;52.372;13.610;2024-03-07T08:30:42;19.77;;;13.38;;
80322;SDS011;69636;52.372;13.610;2024-03-07T08:33:09;18.63;;;12.10;;
80322;SDS011;69636;52.372;13.610;2024-03-07T08:35:37;18.63;;;13.05;;
80322;SDS011;69636;52.372;13.610;2024-03-07T08:38:05;18.45;;;12.88;;
80322;SDS011;69636;52.372;13.610;2024-03-07T08:40:34;15.57;;;11.50;;
80322;SDS011;69636;52.372;13.610;2024-03-07T08:43:02;17.85;;;13.65;;
80322;SDS011;69636;52.372;13.610;2024-03-07T08:47:57;17.17;;;11.45;;
80322;SDS011;69636;52.372;13.610;2024-03-07T08:50:26;15.50;;;9.90;;
80322;SDS011;69636;52.372;13.610;2024-03-07T08:52:56;16.10;;;9.77;;
80322;SDS011;69636;52.372;13.610;2024-03-07T08:55:24;16.92;;;11.48;;
80322;SDS011;69636;52.372;13.610;2024-03-07T08:57:54;16.92;;;11.32;;
80322;SDS011;69636;52.372;13.610;2024-03-07T09:00:22;16.98;;;10.65;;
80322;SDS011;69636;52.372;13.610;2024-03-07T09:02:50;16.58;;;11.38;;
80322;SDS011;69636;52.372;13.610;2024-03-07T09:05:19;15.38;;;11.38;;
80322;SDS011;69636;52.372;13.610;2024-03-07T09:07:47;16.67;;;10.00;;
80322;SDS011;69636;52.372;13.610;2024-03-07T09:10:15;15.50;;;10.70;;
80322;SDS011;69636;52.372;13.610;2024-03-07T09:12:42;13.25;;;9.30;;
80322;SDS011;69636;52.372;13.610;2024-03-07T09:15:12;16.00;;;9.82;;
80322;SDS011;69636;52.372;13.610;2024-03-07T09:17:40;15.18;;;9.85;;
80322;SDS011;69636;52.372;13.610;2024-03-07T09:20:08;12.98;;;8.75;;
80322;SDS011;69636;52.372;13.610;2024-03-07T09:22:37;16.17;;;10.07;;
80322;SDS011;69636;52.372;13.610;2024-03-07T09:25:05;12.50;;;8.60;;
80322;SDS011;69636;52.372;13.610;2024-03-07T09:27:33;11.48;;;8.70;;
80322;SDS011;69636;52.372;13.610;2024-03-07T09:30:01;13.98;;;9.07;;
80322;SDS011;69636;52.372;13.610;2024-03-07T09:32:30;12.13;;;9.13;;
80322;SDS011;69636;52.372;13.610;2024-03-07T09:34:57;13.43;;;10.32;;
80322;SDS011;69636;52.372;13.610;2024-03-07T09:37:25;14.70;;;10.52;;
80322;SDS011;69636;52.372;13.610;2024-03-07T09:39:52;13.70;;;9.15;;
80322;SDS011;69636;52.372;13.610;2024-03-07T09:42:19;13.68;;;8.88;;
80322;SDS011;69636;52.372;13.610;2024-03-07T09:44:49;13.07;;;9.50;;
80322;SDS011;69636;52.372;13.610;2024-03-07T09:47:18;14.15;;;9.80;;
80322;SDS011;69636;52.372;13.610;2024-03-07T09:49:48;13.07;;;8.10;;
80322;SDS011;69636;52.372;13.610;2024-03-07T09:52:17;13.50;;;8.38;;
80322;SDS011;69636;52.372;13.610;2024-03-07T09:54:44;13.57;;;8.25;;
80322;SDS011;69636;52.372;13.610;2024-03-07T09:57:11;12.45;;;7.63;;
80322;SDS011;69636;52.372;13.610;2024-03-07T09:59:41;11.93;;;8.45;;
80322;SDS011;69636;52.372;13.610;2024-03-07T10:02:12;10.98;;;7.85;;
80322;SDS011;69636;52.372;13.610;2024-03-07T10:04:43;11.88;;;9.88;;
80322;SDS011;69636;52.372;13.610;2024-03-07T10:07:12;12.10;;;8.35;;
80322;SDS011;69636;52.372;13.610;2024-03-07T10:09:40;12.32;;;8.90;;
80322;SDS011;69636;52.372;13.610;2024-03-07T10:12:08;14.75;;;10.80;;
80322;SDS011;69636;52.372;13.610;2024-03-07T10:14:36;13.85;;;9.25;;
80322;SDS011;69636;52.372;13.610;2024-03-07T10:17:04;11.85;;;8.90;;
80322;SDS011;69636;52.372;13.610;2024-03-07T10:19:31;12.30;;;8.57;;
80322;SDS011;69636;52.372;13.610;2024-03-07T10:21:59;12.05;;;8.57;;
80322;SDS011;69636;52.372;13.610;2024-03-07T10:24:28;12.80;;;9.05;;
80322;SDS011;69636;52.372;13.610;2024-03-07T10:26:55;12.82;;;8.55;;
80322;SDS011;69636;52.372;13.610;2024-03-07T10:29:23;11.60;;;8.30;;
80322;SDS011;69636;52.372;13.610;2024-03-07T10:31:51;12.10;;;7.93;;
80322;SDS011;69636;52.372;13.610;2024-03-07T10:34:31;10.90;;;7.25;;
80322;SDS011;69636;52.372;13.610;2024-03-07T10:37:00;14.50;;;8.45;;
80322;SDS011;69636;52.372;13.610;2024-03-07T10:39:29;14.18;;;8.52;;
80322;SDS011;69636;52.372;13.610;2024-03-07T10:41:57;13.57;;;8.32;;
80322;SDS011;69636;52.372;13.610;2024-03-07T10:44:28;18.60;;;10.50;;
80322;SDS011;69636;52.372;13.610;2024-03-07T10:46:57;14.18;;;8.32;;
80322;SDS011;69636;52.372;13.610;2024-03-07T10:49:25;13.02;;;9.55;;
80322;SDS011;69636;52.372;13.610;2024-03-07T10:51:58;16.08;;;8.77;;
80322;SDS011;69636;52.372;13.610;2024-03-07T10:54:33;12.20;;;9.57;;
80322;SDS011;69636;52.372;13.610;2024-03-07T10:57:11;13.88;;;10.07;;
80322;SDS011;69636;52.372;13.610;2024-03-07T10:59:49;13.27;;;8.90;;
80322;SDS011;69636;52.372;13.610;2024-03-07T11:02:20;15.68;;;11.23;;
80322;SDS011;69636;52.372;13.610;2024-03-07T11:04:57;13.57;;;9.57;;
80322;SDS011;69636;52.372;13.610;2024-03-07T11:07:27;14.48;;;10.52;;
80322;SDS011;69636;52.372;13.610;2024-03-07T11:09:58;14.73;;;10.13;;
80322;SDS011;69636;52.372;13.610;2024-03-07T11:12:28;15.05;;;10.05;;
80322;SDS011;69636;52.372;13.610;2024-03-07T11:14:58;13.77;;;10.52;;
80322;SDS011;69636;52.372;13.610;2024-03-07T11:17:25;14.57;;;10.48;;
80322;SDS011;69636;52.372;13.610;2024-03-07T11:19:54;14.05;;;9.60;;
80322;SDS011;69636;52.372;13.610;2024-03-07T11:22:28;14.00;;;8.38;;
80322;SDS011;69636;52.372;13.610;2024-03-07T11:25:02;12.52;;;9.52;;
80322;SDS011;69636;52.372;13.610;2024-03-07T11:27:31;13.57;;;8.45;;
80322;SDS011;69636;52.372;13.610;2024-03-07T11:30:04;12.98;;;9.52;;
80322;SDS011;69636;52.372;13.610;2024-03-07T11:32:34;14.40;;;8.60;;
80322;SDS011;69636;52.372;13.610;2024-03-07T11:35:03;12.32;;;8.20;;
80322;SDS011;69636;52.372;13.610;2024-03-07T11:37:38;12.85;;;9.20;;
80322;SDS011;69636;52.372;13.610;2024-03-07T11:40:08;12.38;;;10.50;;
80322;SDS011;69636;52.372;13.610;2024-03-07T11:42:37;13.35;;;9.73;;
80322;SDS011;69636;52.372;13.610;2024-03-07T11:45:05;14.25;;;10.40;;
80322;SDS011;69636;52.372;13.610;2024-03-07T11:47:35;16.05;;;11.57;;
80322;SDS011;69636;52.372;13.610;2024-03-07T11:50:04;14.90;;;10.15;;
80322;SDS011;69636;52.372;13.610;2024-03-07T11:52:32;14.88;;;9.45;;
80322;SDS011;69636;52.372;13.610;2024-03-07T11:54:59;13.88;;;9.52;;
80322;SDS011;69636;52.372;13.610;2024-03-07T11:57:28;13.32;;;9.02;;
80322;SDS011;69636;52.372;13.610;2024-03-07T11:59:56;14.63;;;8.38;;
80322;SDS011;69636;52.372;13.610;2024-03-07T12:02:26;13.07;;;10.07;;
80322;SDS011;69636;52.372;13.610;2024-03-07T12:04:54;12.70;;;10.25;;
80322;SDS011;69636;52.372;13.610;2024-03-07T12:07:21;15.27;;;10.73;;
80322;SDS011;69636;52.372;13.610;2024-03-07T12:09:49;16.70;;;10.18;;
80322;SDS011;69636;52.372;13.610;2024-03-07T12:12:17;13.52;;;10.43;;
80322;SDS011;69636;52.372;13.610;2024-03-07T12:14:47;13.52;;;9.90;;
80322;SDS011;69636;52.372;13.610;2024-03-07T12:17:15;13.88;;;9.02;;
80322;SDS011;69636;52.372;13.610;2024-03-07T12:19:43;14.55;;;10.07;;
80322;SDS011;69636;52.372;13.610;2024-03-07T12:22:11;15.40;;;9.88;;
80322;SDS011;69636;52.372;13.610;2024-03-07T12:24:38;14.57;;;9.98;;
80322;SDS011;69636;52.372;13.610;2024-03-07T12:27:07;12.30;;;9.05;;
80322;SDS011;69636;52.372;13.610;2024-03-07T12:29:36;15.57;;;9.20;;
80322;SDS011;69636;52.372;13.610;2024-03-07T12:32:06;15.93;;;11.07;;
80322;SDS011;69636;52.372;13.610;2024-03-07T12:34:34;15.35;;;9.55;;
80322;SDS011;69636;52.372;13.610;2024-03-07T12:37:03;16.17;;;11.43;;
80322;SDS011;69636;52.372;13.610;2024-03-07T12:39:31;13.60;;;9.65;;
80322;SDS011;69636;52.372;13.610;2024-03-07T12:42:00;13.55;;;8.95;;
80322;SDS011;69636;52.372;13.610;2024-03-07T12:44:27;13.95;;;10.30;;
80322;SDS011;69636;52.372;13.610;2024-03-07T12:47:07;16.40;;;10.65;;
80322;SDS011;69636;52.372;13.610;2024-03-07T12:49:36;14.27;;;10.38;;
80322;SDS011;69636;52.372;13.610;2024-03-07T12:52:04;14.05;;;10.07;;
80322;SDS011;69636;52.372;13.610;2024-03-07T12:54:34;14.25;;;10.13;;
80322;SDS011;69636;52.372;13.610;2024-03-07T12:57:02;15.07;;;9.68;;
80322;SDS011;69636;52.372;13.610;2024-03-07T12:59:30;13.20;;;8.93;;
80322;SDS011;69636;52.372;13.610;2024-03-07T13:01:57;13.45;;;9.43;;
80322;SDS011;69636;52.372;13.610;2024-03-07T13:04:26;15.80;;;9.82;;
80322;SDS011;69636;52.372;13.610;2024-03-07T13:06:56;17.67;;;11.20;;
80322;SDS011;69636;52.372;13.610;2024-03-07T13:09:23;14.18;;;10.00;;
80322;SDS011;69636;52.372;13.610;2024-03-07T13:11:53;14.55;;;9.48;;
80322;SDS011;69636;52.372;13.610;2024-03-07T13:14:22;16.58;;;11.60;;
80322;SDS011;69636;52.372;13.610;2024-03-07T13:16:49;13.88;;;10.10;;
80322;SDS011;69636;52.372;13.610;2024-03-07T13:19:17;14.13;;;10.30;;
80322;SDS011;69636;52.372;13.610;2024-03-07T13:21:46;15.65;;;9.75;;
80322;SDS011;69636;52.372;13.610;2024-03-07T13:24:13;16.52;;;11.10;;
80322;SDS011;69636;52.372;13.610;2024-03-07T13:26:41;15.82;;;9.30;;
80322;SDS011;69636;52.372;13.610;2024-03-07T13:29:12;14.77;;;10.57;;
80322;SDS011;69636;52.372;13.610;2024-03-07T13:31:40;14.93;;;10.43;;
80322;SDS011;69636;52.372;13.610;2024-03-07T13:34:08;16.52;;;11.70;;
80322;SDS011;69636;52.372;13.610;2024-03-07T13:36:35;14.15;;;9.80;;
80322;SDS011;69636;52.372;13.610;2024-03-07T13:39:05;14.43;;;10.30;;
80322;SDS011;69636;52.372;13.610;2024-03-07T13:41:35;14.98;;;9.15;;
80322;SDS011;69636;52.372;13.610;2024-03-07T13:44:02;16.55;;;10.07;;
80322;SDS011;69636;52.372;13.610;2024-03-07T13:46:30;15.32;;;11.63;;
80322;SDS011;69636;52.372;13.610;2024-03-07T13:48:57;15.52;;;9.80;;
80322;SDS011;69636;52.372;13.610;2024-03-07T13:51:25;16.38;;;10.55;;
80322;SDS011;69636;52.372;13.610;2024-03-07T13:53:52;16.58;;;10.10;;
80322;SDS011;69636;52.372;13.610;2024-03-07T13:56:34;16.95;;;10.70;;
80322;SDS011;69636;52.372;13.610;2024-03-07T14:02:09;17.35;;;11.00;;
80322;SDS011;69636;52.372;13.610;2024-03-07T14:07:55;17.15;;;10.02;;
80322;SDS011;69636;52.372;13.610;2024-03-07T14:13:56;16.65;;;10.70;;
80322;SDS011;69636;52.372;13.610;2024-03-07T14:16:55;13.30;;;10.60;;
80322;SDS011;69636;52.372;13.610;2024-03-07T14:22:33;15.45;;;11.70;;
80322;SDS011;69636;52.372;13.610;2024-03-07T14:25:23;17.92;;;11.57;;
80322;SDS011;69636;52.372;13.610;2024-03-07T14:28:11;15.93;;;12.25;;
80322;SDS011;69636;52.372;13.610;2024-03-07T14:30:48;16.88;;;11.82;;
80322;SDS011;69636;52.372;13.610;2024-03-07T14:33:18;17.42;;;10.93;;
80322;SDS011;69636;52.372;13.610;2024-03-07T14:36:00;15.77;;;12.00;;
80322;SDS011;69636;52.372;13.610;2024-03-07T14:38:39;16.23;;;10.30;;
80322;SDS011;69636;52.372;13.610;2024-03-07T14:41:10;16.60;;;10.38;;